Aspers, Pennsylvania
Current Conditions -  °F | °C
As of 8:10 AM on Saturday 20 Dec 2014 (Local Time) from KTHV Reporting Station
Scattered Clouds Scattered Clouds  
Wind Chill: 23°   Ceiling: Unl
Heat Index: 28°   Visibility: 10mi
Dew Point: 20°   Wind: 5mph
Humidity: 72%   Direction: 320°NW
Pressure: 30.28"   Gusts: NA
Location:  39.98°N, 77.22°W
Report Text: KTHV 201310Z AUTO 32004KT 10SM SCT028 M02/M07 A3028 RMK AO2 T10221067
Loading
Personal Weather Stations






























Interactive Weather Map New forecast layout! Learn more

10-Day Weather Forecast

Advertisements
Track Severe Weather on mobile